createdAt,value
2017-10-24T00:00:26.584Z,0.00
2017-10-24T00:01:26.524Z,0.00
2017-10-24T00:02:26.462Z,0.00
2017-10-24T00:03:26.408Z,0.00
2017-10-24T00:04:26.350Z,0.00
2017-10-24T00:05:26.285Z,0.00
2017-10-24T00:06:26.227Z,0.00
2017-10-24T00:07:26.171Z,0.00
2017-10-24T00:08:26.112Z,0.00
2017-10-24T00:09:26.054Z,0.00
2017-10-24T00:10:25.998Z,0.00
2017-10-24T00:11:25.950Z,0.00
2017-10-24T00:12:25.886Z,0.00
2017-10-24T00:13:25.832Z,0.00
2017-10-24T00:14:25.776Z,0.00
2017-10-24T00:15:25.721Z,0.00
2017-10-24T00:16:25.645Z,0.00
2017-10-24T00:17:25.591Z,0.00
2017-10-24T00:18:25.526Z,0.00
2017-10-24T00:19:25.469Z,0.00
2017-10-24T00:20:25.407Z,0.00
2017-10-24T00:21:25.344Z,0.00
2017-10-24T00:22:25.287Z,0.00
2017-10-24T00:23:25.234Z,0.00
2017-10-24T00:24:25.173Z,0.00
2017-10-24T00:25:25.117Z,0.00
2017-10-24T00:26:25.062Z,0.00
2017-10-24T00:27:25.002Z,0.00
2017-10-24T00:28:24.939Z,0.00
2017-10-24T00:29:24.890Z,0.00
2017-10-24T00:30:24.837Z,0.00
2017-10-24T00:31:24.782Z,0.00
2017-10-24T00:32:24.705Z,0.00
2017-10-24T00:33:24.643Z,0.00
2017-10-24T00:34:24.586Z,0.00
2017-10-24T00:35:24.530Z,0.00
2017-10-24T00:36:24.460Z,0.00
2017-10-24T00:37:24.405Z,0.00
2017-10-24T00:38:24.351Z,0.00
2017-10-24T00:39:24.315Z,0.00
2017-10-24T00:40:24.231Z,0.00
2017-10-24T00:41:24.173Z,0.00
2017-10-24T00:42:24.118Z,0.00
2017-10-24T00:43:24.061Z,0.00
2017-10-24T00:44:24.007Z,0.00
2017-10-24T00:45:23.952Z,0.00
2017-10-24T00:46:23.897Z,0.00
2017-10-24T00:47:23.820Z,0.00
2017-10-24T00:48:23.763Z,0.00
2017-10-24T00:49:23.705Z,0.00
2017-10-24T00:50:23.652Z,0.00
2017-10-24T00:51:23.583Z,0.00
2017-10-24T00:52:23.529Z,0.00
2017-10-24T00:53:23.469Z,0.00
2017-10-24T00:54:23.405Z,0.00
2017-10-24T00:55:23.350Z,0.00
2017-10-24T00:56:23.291Z,0.00
2017-10-24T00:57:23.233Z,0.00
2017-10-24T00:58:23.175Z,0.00
2017-10-24T00:59:23.123Z,0.00
2017-10-24T01:00:23.067Z,0.00
2017-10-24T01:01:23.012Z,0.00
2017-10-24T01:02:22.958Z,0.00
2017-10-24T01:03:22.886Z,0.00
2017-10-24T01:04:22.820Z,0.00
2017-10-24T01:05:22.764Z,0.00
2017-10-24T01:06:22.710Z,0.00
2017-10-24T01:07:22.646Z,0.00
2017-10-24T01:08:22.587Z,0.00
2017-10-24T01:09:22.523Z,0.00
2017-10-24T01:10:22.468Z,0.00
2017-10-24T01:11:22.409Z,0.00
2017-10-24T01:12:22.351Z,0.00
2017-10-24T01:13:22.293Z,0.00
2017-10-24T01:14:22.248Z,0.00
2017-10-24T01:15:22.182Z,0.00
2017-10-24T01:16:22.128Z,0.00
2017-10-24T01:17:22.072Z,0.00
2017-10-24T01:18:21.999Z,0.00
2017-10-24T01:19:21.941Z,0.00
2017-10-24T01:20:21.882Z,0.00
2017-10-24T01:21:21.853Z,0.00
2017-10-24T01:22:21.772Z,0.00
2017-10-24T01:23:21.707Z,0.00
2017-10-24T01:24:21.640Z,0.00
2017-10-24T01:25:21.583Z,0.00
2017-10-24T01:26:21.528Z,0.00
2017-10-24T01:27:21.471Z,0.00
2017-10-24T01:28:21.411Z,0.00
2017-10-24T01:29:21.361Z,0.00
2017-10-24T01:30:21.302Z,0.00
2017-10-24T01:31:21.244Z,0.00
2017-10-24T01:32:21.187Z,0.00
2017-10-24T01:33:21.118Z,0.00
2017-10-24T01:34:21.078Z,0.00
2017-10-24T01:35:21.004Z,0.00
2017-10-24T01:36:20.951Z,0.00
2017-10-24T01:37:20.882Z,0.00
2017-10-24T01:38:20.824Z,0.00
2017-10-24T01:39:20.760Z,0.00
2017-10-24T01:40:20.700Z,0.00
2017-10-24T01:41:20.643Z,0.00
2017-10-24T01:42:20.597Z,0.00
2017-10-24T01:43:20.527Z,0.00
2017-10-24T01:44:20.476Z,0.00
2017-10-24T01:45:20.414Z,0.00
2017-10-24T01:46:20.358Z,0.00
2017-10-24T01:47:20.302Z,0.00
2017-10-24T01:48:20.235Z,0.00
2017-10-24T01:49:20.176Z,0.00
2017-10-24T01:50:20.118Z,0.00
2017-10-24T01:51:20.067Z,0.00
2017-10-24T01:52:20.006Z,0.00
2017-10-24T01:53:19.939Z,0.00
2017-10-24T01:54:19.875Z,0.00
2017-10-24T01:55:19.816Z,0.00
2017-10-24T01:56:19.759Z,0.00
2017-10-24T01:57:19.710Z,0.00
2017-10-24T01:58:19.644Z,0.00
2017-10-24T01:59:19.587Z,0.00
2017-10-24T02:00:19.529Z,0.00
2017-10-24T02:01:19.473Z,0.00
2017-10-24T02:02:19.414Z,0.00
2017-10-24T02:03:19.365Z,0.00
2017-10-24T02:04:19.308Z,0.00
2017-10-24T02:05:19.239Z,0.00
2017-10-24T02:06:19.174Z,0.00
2017-10-24T02:07:19.113Z,0.00
2017-10-24T02:08:19.053Z,0.00
2017-10-24T02:09:18.990Z,0.00
2017-10-24T02:10:18.941Z,0.00
2017-10-24T02:11:18.875Z,0.00
2017-10-24T02:12:18.823Z,0.00
2017-10-24T02:13:18.757Z,0.00
2017-10-24T02:14:18.700Z,0.00
2017-10-24T02:15:18.644Z,0.00
2017-10-24T02:16:18.586Z,0.00
2017-10-24T02:17:18.521Z,0.00
2017-10-24T02:18:18.463Z,0.00
2017-10-24T02:19:18.423Z,0.00
2017-10-24T02:20:18.343Z,0.00
2017-10-24T02:21:18.287Z,0.00
2017-10-24T02:22:18.226Z,0.00
2017-10-24T02:23:18.167Z,0.00
2017-10-24T02:24:18.112Z,0.00
2017-10-24T02:25:18.041Z,0.00
2017-10-24T02:26:18.003Z,0.00
2017-10-24T02:27:17.929Z,0.00
2017-10-24T02:28:17.872Z,0.00
2017-10-24T02:29:17.813Z,0.00
2017-10-24T02:30:17.756Z,0.00
2017-10-24T02:31:17.703Z,0.00
2017-10-24T02:32:17.647Z,0.00
2017-10-24T02:33:17.593Z,0.00
2017-10-24T02:34:17.517Z,0.00
2017-10-24T02:35:17.455Z,0.00
2017-10-24T02:36:17.397Z,0.00
2017-10-24T02:37:17.337Z,0.00
2017-10-24T02:38:17.270Z,0.00
2017-10-24T02:39:17.235Z,0.00
2017-10-24T02:40:17.158Z,0.00
2017-10-24T02:41:17.097Z,0.00
2017-10-24T02:42:17.041Z,0.00
2017-10-24T02:43:16.982Z,0.00
2017-10-24T02:44:16.926Z,0.00
2017-10-24T02:45:16.871Z,0.00
2017-10-24T02:46:16.817Z,0.00
2017-10-24T02:47:16.762Z,0.00
2017-10-24T02:48:16.706Z,0.00
2017-10-24T02:49:16.621Z,0.00
2017-10-24T02:50:16.565Z,0.00
2017-10-24T02:51:16.506Z,0.00
2017-10-24T02:52:16.440Z,0.00
2017-10-24T02:53:16.382Z,0.00
2017-10-24T02:54:16.325Z,0.00
2017-10-24T02:55:16.268Z,0.00
2017-10-24T02:56:16.208Z,0.00
2017-10-24T02:57:16.152Z,0.00
2017-10-24T02:58:16.096Z,0.00
2017-10-24T02:59:16.041Z,0.00
2017-10-24T03:00:15.986Z,0.00
2017-10-24T03:01:15.932Z,0.00
2017-10-24T03:02:15.850Z,0.00
2017-10-24T03:03:15.793Z,0.00
2017-10-24T03:04:15.736Z,0.00
2017-10-24T03:05:15.670Z,0.00
2017-10-24T03:06:15.610Z,0.00
2017-10-24T03:07:15.568Z,0.00
2017-10-24T03:08:15.499Z,0.00
2017-10-24T03:09:15.438Z,0.00
2017-10-24T03:10:15.379Z,0.00
2017-10-24T03:11:15.321Z,0.00
2017-10-24T03:12:15.269Z,0.00
2017-10-24T03:13:15.211Z,0.00
2017-10-24T03:14:15.156Z,0.00
2017-10-24T03:15:15.101Z,0.00
2017-10-24T03:16:15.019Z,0.00
2017-10-24T03:17:14.964Z,0.00
2017-10-24T03:18:14.906Z,0.00
2017-10-24T03:19:14.847Z,0.00
2017-10-24T03:20:14.783Z,0.00
2017-10-24T03:21:14.723Z,0.00
2017-10-24T03:22:14.669Z,0.00
2017-10-24T03:23:14.610Z,0.00
2017-10-24T03:24:14.551Z,0.00
2017-10-24T03:25:14.492Z,0.00
2017-10-24T03:26:14.436Z,0.00
2017-10-24T03:27:14.381Z,0.00
2017-10-24T03:28:14.328Z,0.00
2017-10-24T03:29:14.270Z,0.00
2017-10-24T03:30:14.200Z,0.00
2017-10-24T03:31:14.142Z,0.00
2017-10-24T03:32:14.083Z,0.00
2017-10-24T03:33:14.066Z,0.00
2017-10-24T03:34:13.962Z,0.00
2017-10-24T03:35:13.896Z,0.00
2017-10-24T03:36:13.838Z,0.00
2017-10-24T03:37:13.782Z,0.00
2017-10-24T03:38:13.725Z,0.00
2017-10-24T03:39:13.667Z,0.00
2017-10-24T03:40:13.610Z,0.00
2017-10-24T03:41:13.551Z,0.00
2017-10-24T03:42:13.495Z,0.00
2017-10-24T03:43:13.441Z,0.00
2017-10-24T03:44:13.386Z,0.00
2017-10-24T03:45:13.332Z,0.00
2017-10-24T03:46:13.256Z,0.00
2017-10-24T03:47:13.198Z,0.00
2017-10-24T03:48:13.139Z,0.00
2017-10-24T03:49:13.078Z,0.00
2017-10-24T03:50:13.021Z,0.00
2017-10-24T03:51:12.968Z,0.00
2017-10-24T03:52:12.905Z,0.00
2017-10-24T03:53:12.842Z,0.00
2017-10-24T03:54:12.782Z,0.00
2017-10-24T03:55:12.732Z,0.00
2017-10-24T03:56:12.668Z,0.00
2017-10-24T03:57:12.621Z,0.00
2017-10-24T03:58:12.557Z,0.00
2017-10-24T03:59:12.500Z,0.00
2017-10-24T04:00:12.446Z,0.00
2017-10-24T04:01:12.392Z,0.00
2017-10-24T04:02:12.315Z,0.00
2017-10-24T04:03:12.257Z,0.00
2017-10-24T04:04:12.197Z,0.00
2017-10-24T04:05:12.140Z,0.00
2017-10-24T04:06:12.074Z,0.00
2017-10-24T04:07:12.017Z,0.00
2017-10-24T04:08:11.957Z,0.00
2017-10-24T04:09:11.900Z,0.00
2017-10-24T04:10:11.843Z,0.00
2017-10-24T04:11:11.786Z,0.00
2017-10-24T04:12:11.728Z,0.00
2017-10-24T04:13:11.672Z,0.00
2017-10-24T04:14:11.616Z,0.00
2017-10-24T04:15:11.561Z,0.00
2017-10-24T04:16:11.506Z,0.00
2017-10-24T04:17:11.451Z,0.00
2017-10-24T04:18:11.378Z,0.00
2017-10-24T04:19:11.315Z,0.00
2017-10-24T04:20:11.267Z,0.00
2017-10-24T04:21:11.199Z,0.00
2017-10-24T04:22:11.134Z,0.00
2017-10-24T04:23:11.082Z,0.00
2017-10-24T04:24:11.016Z,0.00
2017-10-24T04:25:10.961Z,0.00
2017-10-24T04:26:10.906Z,0.00
2017-10-24T04:27:10.848Z,0.00
2017-10-24T04:28:10.788Z,0.00
2017-10-24T04:29:10.733Z,0.00
2017-10-24T04:30:10.676Z,0.00
2017-10-24T04:31:10.622Z,0.00
2017-10-24T04:32:10.567Z,0.00
2017-10-24T04:33:10.512Z,0.00
2017-10-24T04:34:10.437Z,0.00
2017-10-24T04:35:10.381Z,0.00
2017-10-24T04:36:10.319Z,0.00
2017-10-24T04:37:10.260Z,0.00
2017-10-24T04:38:10.205Z,0.00
2017-10-24T04:39:10.137Z,0.00
2017-10-24T04:40:10.079Z,0.00
2017-10-24T04:41:10.023Z,0.00
2017-10-24T04:42:09.967Z,0.00
2017-10-24T04:43:09.906Z,0.00
2017-10-24T04:44:09.855Z,0.00
2017-10-24T04:45:09.793Z,0.00
2017-10-24T04:46:09.739Z,0.00
2017-10-24T04:47:09.684Z,0.00
2017-10-24T04:48:09.627Z,0.00
2017-10-24T04:49:09.574Z,0.00
2017-10-24T04:50:09.498Z,0.00
2017-10-24T04:51:09.437Z,0.00
2017-10-24T04:52:09.378Z,0.00
2017-10-24T04:53:09.321Z,0.00
2017-10-24T04:54:09.277Z,0.00
2017-10-24T04:55:09.196Z,0.00
2017-10-24T04:56:09.139Z,0.00
2017-10-24T04:57:09.083Z,0.00
2017-10-24T04:58:09.027Z,0.00
2017-10-24T04:59:08.971Z,0.00
2017-10-24T05:00:08.909Z,0.00
2017-10-24T05:01:08.854Z,0.00
2017-10-24T05:02:08.799Z,0.00
2017-10-24T05:03:08.743Z,0.00
2017-10-24T05:04:08.687Z,0.00
2017-10-24T05:05:08.633Z,0.00
2017-10-24T05:06:08.557Z,0.00
2017-10-24T05:07:08.497Z,0.00
2017-10-24T05:08:08.438Z,0.00
2017-10-24T05:09:08.382Z,0.00
2017-10-24T05:10:08.317Z,0.00
2017-10-24T05:11:08.259Z,0.00
2017-10-24T05:12:08.203Z,0.00
2017-10-24T05:13:08.144Z,0.00
2017-10-24T05:14:08.095Z,0.00
2017-10-24T05:15:08.032Z,0.00
2017-10-24T05:16:07.975Z,0.00
2017-10-24T05:17:07.914Z,0.00
2017-10-24T05:18:07.857Z,4.00
2017-10-24T05:19:07.803Z,4.00
2017-10-24T05:20:07.748Z,0.00
2017-10-24T05:21:07.693Z,4.00
2017-10-24T05:22:07.619Z,4.00
2017-10-24T05:23:07.558Z,4.00
2017-10-24T05:24:07.498Z,4.00
2017-10-24T05:25:07.445Z,4.00
2017-10-24T05:26:07.377Z,4.00
2017-10-24T05:27:07.317Z,8.00
2017-10-24T05:28:07.259Z,8.00
2017-10-24T05:29:07.206Z,12.00
2017-10-24T05:30:07.146Z,12.00
2017-10-24T05:31:07.090Z,16.00
2017-10-24T05:32:07.030Z,20.00
2017-10-24T05:33:06.992Z,20.00
2017-10-24T05:34:06.911Z,24.00
2017-10-24T05:35:06.867Z,24.00
2017-10-24T05:36:06.812Z,28.00
2017-10-24T05:37:06.755Z,28.00
2017-10-24T05:38:06.672Z,32.00
2017-10-24T05:39:06.625Z,36.00
2017-10-24T05:40:06.573Z,36.00
2017-10-24T05:41:06.503Z,44.00
2017-10-24T05:42:06.444Z,48.00
2017-10-24T05:43:06.378Z,52.00
2017-10-24T05:44:06.326Z,56.00
2017-10-24T05:45:06.281Z,60.00
2017-10-24T05:46:06.216Z,72.00
2017-10-24T05:47:06.149Z,76.00
2017-10-24T05:48:06.098Z,80.00
2017-10-24T05:49:06.032Z,88.00
2017-10-24T05:50:05.978Z,96.00
2017-10-24T05:51:05.925Z,104.00
2017-10-24T05:52:05.871Z,112.00
2017-10-24T05:53:05.815Z,124.00
2017-10-24T05:54:05.740Z,128.00
2017-10-24T05:55:05.681Z,136.00
2017-10-24T05:56:05.628Z,140.00
2017-10-24T05:57:05.565Z,136.00
2017-10-24T05:58:05.510Z,148.00
2017-10-24T05:59:05.447Z,156.00
2017-10-24T06:00:05.382Z,164.00
2017-10-24T06:01:05.331Z,176.00
2017-10-24T06:02:05.269Z,188.00
2017-10-24T06:03:05.215Z,200.00
2017-10-24T06:04:05.165Z,220.00
2017-10-24T06:05:05.098Z,236.00
2017-10-24T06:06:05.043Z,244.00
2017-10-24T06:07:04.984Z,260.00
2017-10-24T06:08:04.930Z,272.00
2017-10-24T06:09:04.913Z,284.00
2017-10-24T06:10:04.822Z,304.00
2017-10-24T06:11:04.747Z,328.00
2017-10-24T06:12:04.692Z,352.00
2017-10-24T06:13:04.630Z,380.00
2017-10-24T06:14:04.569Z,404.00
2017-10-24T06:15:04.521Z,404.00
2017-10-24T06:16:04.449Z,404.00
2017-10-24T06:17:04.408Z,404.00
2017-10-24T06:18:04.337Z,412.00
2017-10-24T06:19:04.277Z,424.00
2017-10-24T06:20:04.229Z,424.00
2017-10-24T06:21:04.170Z,440.00
2017-10-24T06:22:04.122Z,460.00
2017-10-24T06:23:04.052Z,464.00
2017-10-24T06:24:03.991Z,472.00
2017-10-24T06:25:03.943Z,484.00
2017-10-24T06:26:03.881Z,488.00
2017-10-24T06:27:03.823Z,508.00
2017-10-24T06:28:03.778Z,544.00
2017-10-24T06:29:03.696Z,580.00
2017-10-24T06:30:03.639Z,620.00
2017-10-24T06:31:03.579Z,664.00
2017-10-24T06:32:03.538Z,696.00
2017-10-24T06:33:03.473Z,724.00
2017-10-24T06:34:03.406Z,748.00
2017-10-24T06:35:03.341Z,784.00
2017-10-24T06:36:03.286Z,832.00
2017-10-24T06:37:03.249Z,880.00
2017-10-24T06:38:03.174Z,944.00
2017-10-24T06:39:03.116Z,992.00
2017-10-24T06:40:03.058Z,1052.00
2017-10-24T06:41:03.003Z,1120.00
2017-10-24T06:42:02.943Z,1184.00
2017-10-24T06:43:02.890Z,1248.00
2017-10-24T06:44:02.835Z,1308.00
2017-10-24T06:45:02.776Z,1344.00
2017-10-24T06:46:02.722Z,1352.00
2017-10-24T06:47:02.668Z,1388.00
2017-10-24T06:48:02.593Z,1448.00
2017-10-24T06:49:02.533Z,1472.00
2017-10-24T06:50:02.481Z,1512.00
2017-10-24T06:51:02.421Z,1548.00
2017-10-24T06:52:02.362Z,1608.00
2017-10-24T06:53:02.315Z,1636.00
2017-10-24T06:54:02.247Z,1644.00
2017-10-24T06:55:02.193Z,1664.00
2017-10-24T06:56:02.126Z,1688.00
2017-10-24T06:57:02.071Z,1700.00
2017-10-24T06:58:02.012Z,1784.00
2017-10-24T06:59:01.969Z,1788.00
2017-10-24T07:00:01.906Z,1784.00
2017-10-24T07:01:01.840Z,1804.00
2017-10-24T07:02:01.785Z,1852.00
2017-10-24T07:03:01.730Z,1900.00
2017-10-24T07:04:01.675Z,1936.00
2017-10-24T07:05:01.622Z,1956.00
2017-10-24T07:06:01.564Z,1908.00
2017-10-24T07:07:01.510Z,1768.00
2017-10-24T07:08:01.455Z,1676.00
2017-10-24T07:09:01.379Z,1656.00
2017-10-24T07:10:01.324Z,1580.00
2017-10-24T07:11:01.298Z,1580.00
2017-10-24T07:12:01.206Z,1540.00
2017-10-24T07:13:01.148Z,1480.00
2017-10-24T07:14:01.090Z,1528.00
2017-10-24T07:15:01.060Z,1584.00
2017-10-24T07:16:00.989Z,1652.00
2017-10-24T07:17:00.912Z,1668.00
2017-10-24T07:18:00.881Z,1664.00
2017-10-24T07:19:00.808Z,1644.00
2017-10-24T07:20:00.748Z,1616.00
2017-10-24T07:21:00.686Z,1592.00
2017-10-24T07:22:00.630Z,1556.00
2017-10-24T07:23:00.574Z,1536.00
2017-10-24T07:24:00.521Z,1536.00
2017-10-24T07:25:00.461Z,1512.00
2017-10-24T07:26:00.406Z,1480.00
2017-10-24T07:27:00.352Z,1452.00
2017-10-24T07:28:00.297Z,1452.00
2017-10-24T07:29:00.249Z,1448.00
2017-10-24T07:30:00.198Z,1460.00
2017-10-24T07:31:00.113Z,1468.00
2017-10-24T07:32:00.062Z,1464.00
2017-10-24T07:32:59.997Z,1460.00
2017-10-24T07:33:59.976Z,1468.00
2017-10-24T07:34:59.882Z,1508.00
2017-10-24T07:35:59.821Z,1516.00
2017-10-24T07:36:59.784Z,1472.00
2017-10-24T07:37:59.708Z,1440.00
2017-10-24T07:38:59.644Z,1420.00
2017-10-24T07:39:59.589Z,1400.00
2017-10-24T07:40:59.531Z,1344.00
2017-10-24T07:41:59.476Z,1304.00
2017-10-24T07:42:59.421Z,1300.00
2017-10-24T07:43:59.363Z,1328.00
2017-10-24T07:44:59.305Z,1320.00
2017-10-24T07:45:59.258Z,1344.00
2017-10-24T07:46:59.195Z,1344.00
2017-10-24T07:47:59.133Z,1364.00
2017-10-24T07:48:59.083Z,1428.00
2017-10-24T07:49:59.029Z,1444.00
2017-10-24T07:50:58.974Z,1548.00
2017-10-24T07:51:58.945Z,1612.00
2017-10-24T07:52:58.845Z,1656.00
2017-10-24T07:53:58.788Z,1680.00
2017-10-24T07:54:58.729Z,1680.00
2017-10-24T07:55:58.678Z,1712.00
2017-10-24T07:56:58.614Z,1724.00
2017-10-24T07:57:58.575Z,1748.00
2017-10-24T07:58:58.514Z,1776.00
2017-10-24T07:59:58.435Z,1812.00
2017-10-24T08:00:58.415Z,1836.00
2017-10-24T08:01:58.359Z,1876.00
2017-10-24T08:02:58.279Z,1900.00
2017-10-24T08:03:58.209Z,1764.00
2017-10-24T08:04:58.158Z,1684.00
2017-10-24T08:05:58.098Z,1728.00
2017-10-24T08:06:58.042Z,1720.00
2017-10-24T08:07:57.984Z,1668.00
2017-10-24T08:08:57.928Z,1576.00
2017-10-24T08:09:57.890Z,1560.00
2017-10-24T08:10:57.816Z,1612.00
2017-10-24T08:11:57.771Z,1612.00
2017-10-24T08:12:57.707Z,1656.00
2017-10-24T08:13:57.642Z,1708.00
2017-10-24T08:14:57.583Z,1692.00
2017-10-24T08:15:57.534Z,1644.00
2017-10-24T08:16:57.469Z,1580.00
2017-10-24T08:17:57.410Z,1592.00
2017-10-24T08:18:57.356Z,1652.00
2017-10-24T08:19:57.297Z,1708.00
2017-10-24T08:20:57.241Z,1792.00
2017-10-24T08:21:57.200Z,1880.00
2017-10-24T08:22:57.124Z,1892.00
2017-10-24T08:23:57.076Z,1900.00
2017-10-24T08:24:57.034Z,1912.00
2017-10-24T08:25:56.947Z,1928.00
2017-10-24T08:26:56.894Z,1952.00
2017-10-24T08:27:56.838Z,1944.00
2017-10-24T08:28:56.784Z,1860.00
2017-10-24T08:29:56.722Z,1796.00
2017-10-24T08:30:56.666Z,1776.00
2017-10-24T08:31:56.631Z,1764.00
2017-10-24T08:32:56.554Z,1820.00
2017-10-24T08:33:56.496Z,1824.00
2017-10-24T08:34:56.440Z,1872.00
2017-10-24T08:35:56.386Z,2012.00
2017-10-24T08:36:56.331Z,2156.00
2017-10-24T08:37:56.267Z,2284.00
2017-10-24T08:38:56.221Z,2368.00
2017-10-24T08:39:56.169Z,2456.00
2017-10-24T08:40:56.113Z,2500.00
2017-10-24T08:41:56.057Z,2428.00
2017-10-24T08:42:55.984Z,2376.00
2017-10-24T08:43:55.931Z,2288.00
2017-10-24T08:44:55.876Z,2312.00
2017-10-24T08:45:55.808Z,2328.00
2017-10-24T08:46:55.755Z,2368.00
2017-10-24T08:47:55.697Z,2504.00
2017-10-24T08:48:55.638Z,2536.00
2017-10-24T08:49:55.579Z,2668.00
2017-10-24T08:50:55.538Z,2780.00
2017-10-24T08:51:55.468Z,2976.00
2017-10-24T08:52:55.406Z,3064.00
2017-10-24T08:53:55.355Z,2936.00
2017-10-24T08:54:55.312Z,2672.00
2017-10-24T08:55:55.236Z,2692.00
2017-10-24T08:56:55.181Z,2740.00
2017-10-24T08:57:55.155Z,2700.00
2017-10-24T08:58:55.082Z,2764.00
2017-10-24T08:59:55.018Z,2720.00
2017-10-24T09:00:54.967Z,2780.00
2017-10-24T09:01:54.910Z,3016.00
2017-10-24T09:02:54.853Z,3284.00
2017-10-24T09:03:54.790Z,3168.00
2017-10-24T09:04:54.734Z,3116.00
2017-10-24T09:05:54.680Z,3712.00
2017-10-24T09:06:54.631Z,4120.00
2017-10-24T09:07:54.575Z,4032.00
2017-10-24T09:08:54.516Z,3824.00
2017-10-24T09:09:54.461Z,4020.00
2017-10-24T09:10:54.421Z,5144.00
2017-10-24T09:11:54.354Z,6164.00
2017-10-24T09:12:54.272Z,6128.00
2017-10-24T09:13:54.218Z,6344.00
2017-10-24T09:14:54.164Z,6312.00
2017-10-24T09:15:54.110Z,6016.00
2017-10-24T09:16:54.049Z,5548.00
2017-10-24T09:17:53.989Z,4864.00
2017-10-24T09:18:53.944Z,4588.00
2017-10-24T09:19:53.902Z,4476.00
2017-10-24T09:20:53.833Z,4696.00
2017-10-24T09:21:53.767Z,5124.00
2017-10-24T09:22:53.705Z,5496.00
2017-10-24T09:23:53.676Z,5844.00
2017-10-24T09:24:53.629Z,5576.00
2017-10-24T09:25:53.536Z,4888.00
2017-10-24T09:26:53.503Z,4780.00
2017-10-24T09:27:53.423Z,5468.00
2017-10-24T09:28:53.386Z,5344.00
2017-10-24T09:29:53.318Z,5312.00
2017-10-24T09:30:53.269Z,5608.00
2017-10-24T09:31:53.206Z,6348.00
2017-10-24T09:32:53.147Z,6684.00
2017-10-24T09:33:53.093Z,7032.00
2017-10-24T09:34:53.036Z,7272.00
2017-10-24T09:35:52.978Z,7452.00
2017-10-24T09:36:52.923Z,7092.00
2017-10-24T09:37:52.869Z,6884.00
2017-10-24T09:38:52.844Z,7088.00
2017-10-24T09:39:52.758Z,7216.00
2017-10-24T09:40:52.703Z,7824.00
2017-10-24T09:41:52.648Z,8076.00
2017-10-24T09:42:52.616Z,8380.00
2017-10-24T09:43:52.539Z,8928.00
2017-10-24T09:44:52.484Z,9256.00
2017-10-24T09:45:52.422Z,9964.00
2017-10-24T09:46:52.379Z,10360.00
2017-10-24T09:47:52.320Z,10308.00
2017-10-24T09:48:52.269Z,10676.00
2017-10-24T09:49:52.213Z,10808.00
2017-10-24T09:50:52.144Z,10844.00
2017-10-24T09:51:52.121Z,11068.00
2017-10-24T09:52:52.049Z,10948.00
2017-10-24T09:53:51.992Z,10364.00
2017-10-24T09:54:51.936Z,10096.00
2017-10-24T09:55:51.865Z,10012.00
2017-10-24T09:56:51.827Z,10276.00
2017-10-24T09:57:51.772Z,10548.00
2017-10-24T09:58:51.707Z,10036.00
2017-10-24T09:59:51.665Z,9868.00
2017-10-24T10:00:51.590Z,10232.00
2017-10-24T10:01:51.557Z,10052.00
2017-10-24T10:02:51.500Z,10080.00
2017-10-24T10:03:51.446Z,10080.00
2017-10-24T10:04:51.371Z,9604.00
2017-10-24T10:05:51.322Z,9036.00
2017-10-24T10:06:51.265Z,8564.00
2017-10-24T10:07:51.205Z,7848.00
2017-10-24T10:08:51.152Z,6452.00
2017-10-24T10:09:51.098Z,4884.00
2017-10-24T10:10:51.045Z,3956.00
2017-10-24T10:11:50.987Z,3944.00
2017-10-24T10:12:50.934Z,4172.00
2017-10-24T10:13:50.876Z,4584.00
2017-10-24T10:14:50.819Z,4364.00
2017-10-24T10:15:50.766Z,3540.00
2017-10-24T10:16:50.711Z,2580.00
2017-10-24T10:17:50.661Z,1984.00
2017-10-24T10:18:50.608Z,1604.00
2017-10-24T10:19:50.547Z,1352.00
2017-10-24T10:20:50.492Z,1168.00
2017-10-24T10:21:50.444Z,1144.00
2017-10-24T10:22:50.382Z,1248.00
2017-10-24T10:23:50.327Z,1164.00
2017-10-24T10:24:50.273Z,1148.00
2017-10-24T10:25:50.216Z,1096.00
2017-10-24T10:26:50.161Z,1068.00
2017-10-24T10:27:50.106Z,1016.00
2017-10-24T10:28:50.082Z,964.00
2017-10-24T10:29:49.996Z,1004.00
2017-10-24T10:30:49.936Z,1188.00
2017-10-24T10:31:49.888Z,1268.00
2017-10-24T10:32:49.831Z,1272.00
2017-10-24T10:33:49.772Z,1220.00
2017-10-24T10:34:49.716Z,1320.00
2017-10-24T10:35:49.664Z,1576.00
2017-10-24T10:36:49.607Z,2004.00
2017-10-24T10:37:49.545Z,2412.00
2017-10-24T10:38:49.486Z,3060.00
2017-10-24T10:39:49.430Z,3424.00
2017-10-24T10:40:49.377Z,3792.00
2017-10-24T10:41:49.320Z,3936.00
2017-10-24T10:42:49.264Z,4176.00
2017-10-24T10:43:49.222Z,4448.00
2017-10-24T10:44:49.153Z,4696.00
2017-10-24T10:45:49.099Z,5040.00
2017-10-24T10:46:49.046Z,5520.00
2017-10-24T10:47:48.986Z,5936.00
2017-10-24T10:48:48.933Z,6124.00
2017-10-24T10:49:48.912Z,6224.00
2017-10-24T10:50:48.827Z,6300.00
2017-10-24T10:51:48.764Z,6276.00
2017-10-24T10:52:48.713Z,6196.00
2017-10-24T10:53:48.670Z,6160.00
2017-10-24T10:54:48.658Z,6284.00
2017-10-24T10:55:48.545Z,6376.00
2017-10-24T10:56:48.488Z,6480.00
2017-10-24T10:57:48.435Z,6892.00
2017-10-24T10:58:48.382Z,7184.00
2017-10-24T10:59:48.327Z,7128.00
2017-10-24T11:00:48.274Z,7288.00
2017-10-24T11:01:48.250Z,7624.00
2017-10-24T11:02:48.169Z,8156.00
2017-10-24T11:03:48.104Z,8584.00
2017-10-24T11:04:48.051Z,9056.00
2017-10-24T11:05:47.996Z,9008.00
2017-10-24T11:06:47.942Z,8820.00
2017-10-24T11:07:47.917Z,8144.00
2017-10-24T11:08:47.851Z,6820.00
2017-10-24T11:09:47.774Z,6264.00
2017-10-24T11:10:47.722Z,5932.00
2017-10-24T11:11:47.664Z,5192.00
2017-10-24T11:12:47.622Z,5328.00
2017-10-24T11:13:47.556Z,5136.00
2017-10-24T11:14:47.489Z,4308.00
2017-10-24T11:15:47.446Z,3780.00
2017-10-24T11:16:47.391Z,3576.00
2017-10-24T11:17:47.338Z,3576.00
2017-10-24T11:18:47.282Z,3704.00
2017-10-24T11:19:47.229Z,3244.00
2017-10-24T11:20:47.173Z,2588.00
2017-10-24T11:21:47.118Z,2060.00
2017-10-24T11:22:47.064Z,1812.00
2017-10-24T11:23:47.012Z,1824.00
2017-10-24T11:24:46.937Z,1636.00
2017-10-24T11:25:46.884Z,1440.00
2017-10-24T11:26:46.846Z,1304.00
2017-10-24T11:27:46.790Z,1236.00
2017-10-24T11:28:46.736Z,1200.00
2017-10-24T11:29:46.682Z,1280.00
2017-10-24T11:30:46.630Z,1260.00
2017-10-24T11:31:46.561Z,1308.00
2017-10-24T11:32:46.500Z,1428.00
2017-10-24T11:33:46.442Z,1452.00
2017-10-24T11:34:46.408Z,1456.00
2017-10-24T11:35:46.330Z,1436.00
2017-10-24T11:36:46.287Z,1392.00
2017-10-24T11:37:46.253Z,1508.00
2017-10-24T11:38:46.164Z,1904.00
2017-10-24T11:39:46.109Z,2476.00
2017-10-24T11:40:46.082Z,3560.00
2017-10-24T11:41:45.995Z,5024.00
2017-10-24T11:42:45.944Z,6156.00
2017-10-24T11:43:45.885Z,7132.00
2017-10-24T11:44:45.828Z,8232.00
2017-10-24T11:45:45.775Z,8928.00
2017-10-24T11:46:45.728Z,8668.00
2017-10-24T11:47:45.661Z,8444.00
2017-10-24T11:48:45.605Z,8268.00
2017-10-24T11:49:45.549Z,7336.00
2017-10-24T11:50:45.514Z,6092.00
2017-10-24T11:51:45.436Z,5708.00
2017-10-24T11:52:45.377Z,6352.00
2017-10-24T11:53:45.354Z,6880.00
2017-10-24T11:54:45.268Z,6968.00
2017-10-24T11:55:45.240Z,7588.00
2017-10-24T11:56:45.156Z,8228.00
2017-10-24T11:57:45.102Z,7856.00
2017-10-24T11:58:45.046Z,7400.00
2017-10-24T11:59:45.000Z,7820.00
2017-10-24T12:00:44.941Z,7384.00
2017-10-24T12:01:44.908Z,7692.00
2017-10-24T12:02:44.827Z,7344.00
2017-10-24T12:03:44.775Z,6900.00
2017-10-24T12:04:44.728Z,6800.00
2017-10-24T12:05:44.666Z,7596.00
2017-10-24T12:06:44.607Z,8292.00
2017-10-24T12:07:44.553Z,8696.00
2017-10-24T12:08:44.525Z,8832.00
2017-10-24T12:09:44.444Z,8896.00
2017-10-24T12:10:44.395Z,9076.00
2017-10-24T12:11:44.335Z,8788.00
2017-10-24T12:12:44.280Z,8084.00
2017-10-24T12:13:44.229Z,7428.00
2017-10-24T12:14:44.172Z,6740.00
2017-10-24T12:15:44.125Z,6300.00
2017-10-24T12:16:44.069Z,5856.00
2017-10-24T12:17:44.061Z,5700.00
2017-10-24T12:18:43.951Z,5840.00
2017-10-24T12:19:43.899Z,5928.00
2017-10-24T12:20:43.846Z,6132.00
2017-10-24T12:21:43.825Z,6204.00
2017-10-24T12:22:43.732Z,6676.00
2017-10-24T12:23:43.679Z,7392.00
2017-10-24T12:24:43.625Z,7104.00
2017-10-24T12:25:43.572Z,6980.00
2017-10-24T12:26:43.516Z,7100.00
2017-10-24T12:27:43.462Z,7436.00
2017-10-24T12:28:43.406Z,7808.00
2017-10-24T12:29:43.349Z,8540.00
2017-10-24T12:30:43.296Z,9412.00
2017-10-24T12:31:43.240Z,9652.00
2017-10-24T12:32:43.193Z,9144.00
2017-10-24T12:33:43.149Z,7732.00
2017-10-24T12:34:43.077Z,6812.00
2017-10-24T12:35:43.025Z,5592.00
2017-10-24T12:36:42.978Z,4832.00
2017-10-24T12:37:42.927Z,4680.00